McChord Air Force Base Tacoma US
ICAO: KTCM
IATA: TCM
Category: Large
Scheduled Services: No

Elevation: 322 ft
TransAlt. 18000 ft.

Airport Communications:
SEATTLE APP/DEP:126.5
ATIS:27.01
GND:125.15
PMSV METRO:34.25
COMD POST:34.94
PTD:37.22
TWR:124.8

KTCM Zoom In..

If you have problems with the map follow the link
https://www.worldairports.se/pages/airport.php?
ICAO=KTCM

Runways:

(A) RW 16 length 10108 ft width 150 ft
ILS 109.90 / hdg 160

(B) RW 34 length 10108 ft width 150 ft
ILS 108.50 / hdg 340

Location; KTCM
Day. 29 / Time. 09.58 Zulu
* Altimeter: 30.22
* Temperature: 06° c. 42.8°f.
* Wind from: KTC° Speed M kn.
Dewpoint: 06° c.
Visibility: 10 Statute Miles.
Clouds: Overcast 3300 ft.

KTCM 290958Z AUTO 19003KT 10SM OVC033 06/06 A3022 RMK AO2 SLP239 T00630063 $


Wind From KTC°
Speed M kn.

 
 
jpsmedia worldairports.se 2020   terms of use